Groveport, OH (43125)

5:07 PM EST on February 01, 2015 (GMT -0500)
Bixby Grove | Change Station
CLOSE
Current Station
Personal Weather Station
Location: Groveport, OH
Elevation: 740 ft
Nearby Weather Stations

Elev 740 ft 39.86 °N, 82.92 °W | Updated 0 second ago

Overcast
Overcast
37.0 °F
Feels Like 33 °F
N
5.2
Wind Variable Wind from ESE
Gusts 8.1 mph

Today
High -- | Low -- °F
--% Chance of Precip.
Yesterday
High -- | Low -- °F
Precip. -- in
7:39 AM 5:50 PM
Waxing Gibbous, 96% visible
Pressure 29.70 in
Visibility 10.0 miles
Clouds Overcast 3000 ft
Windchill 33 °F
Dew Point 33 °F
Humidity 86%
Rainfall 0.20 in
Snow Depth Not available.
UV 0 out of 12
Pollen .30 out of 12
Air Quality Not available.
Flu Activity Not available.
METAR KLCK 012135Z AUTO 14009KT 10SM OVC030 02/00 A2970 RMK AO2 T00230001

More Conditions Fewer Conditions

Pressure 29.70 in
Visibility 10.0 miles
Clouds Overcast 3000 ft
Windchill 33 °F
Dew Point 33 °F
Humidity 86%
Rainfall 0.20 in
Snow Depth Not available.
UV 0 out of 12
Pollen .30 out of 12
Air Quality Not available.
Flu Activity Not available.
METAR KLCK 012135Z AUTO 14009KT 10SM OVC030 02/00 A2970 RMK AO2 T00230001

More Conditions Fewer Conditions

10-Day Weather Forecast

Almanac

Astronomy

Feb. 01, 2015 Rise Set
Actual Time
Civil Twilight
Nautical Twilight
Astronomical Twilight
Moon
Length of Visible Light
Length of Day
Tomorrow will be .
, % of the Moon is Illuminated

Today's Extremes

State Highs State Lows

Community

WunderPhotos

Upload Photos

1,792,561 photos uploaded!

WunderBlogs® & News

Nearby

Air Quality

  Air Quality AQ Index Pollutant
Not available.

Snow Depth

Station Depth Elevation

Earthquake Activity

City Distance Mag. Time & Date
Minimum magnitude displayed is 2.5.

Coastal Water Temperatures

Place Temperature

Nearby Weather Stations